sensor_id;sensor_type;location;lat;lon;timestamp;P1;durP1;ratioP1;P2;durP2;ratioP2
65387;SDS011;51992;53.528;49.474;2022-12-07T00:00:28;10.27;;;5.60;;
65387;SDS011;51992;53.528;49.474;2022-12-07T00:02:53;11.57;;;5.40;;
65387;SDS011;51992;53.528;49.474;2022-12-07T00:05:19;11.63;;;5.78;;
65387;SDS011;51992;53.528;49.474;2022-12-07T00:07:44;10.77;;;5.72;;
65387;SDS011;51992;53.528;49.474;2022-12-07T00:10:10;11.98;;;5.60;;
65387;SDS011;51992;53.528;49.474;2022-12-07T00:12:36;11.93;;;5.55;;
65387;SDS011;51992;53.528;49.474;2022-12-07T00:15:02;9.18;;;5.32;;
65387;SDS011;51992;53.528;49.474;2022-12-07T00:17:27;10.93;;;5.03;;
65387;SDS011;51992;53.528;49.474;2022-12-07T00:19:53;9.80;;;5.20;;
65387;SDS011;51992;53.528;49.474;2022-12-07T00:22:19;9.57;;;5.32;;
65387;SDS011;51992;53.528;49.474;2022-12-07T00:24:44;9.68;;;4.95;;
65387;SDS011;51992;53.528;49.474;2022-12-07T00:27:10;8.95;;;5.15;;
65387;SDS011;51992;53.528;49.474;2022-12-07T00:29:36;12.50;;;5.82;;
65387;SDS011;51992;53.528;49.474;2022-12-07T00:32:02;9.20;;;4.97;;
65387;SDS011;51992;53.528;49.474;2022-12-07T00:34:29;11.65;;;4.72;;
65387;SDS011;51992;53.528;49.474;2022-12-07T00:36:55;10.43;;;4.82;;
65387;SDS011;51992;53.528;49.474;2022-12-07T00:39:21;7.85;;;4.45;;
65387;SDS011;51992;53.528;49.474;2022-12-07T00:41:46;9.88;;;4.88;;
65387;SDS011;51992;53.528;49.474;2022-12-07T00:44:12;9.88;;;5.15;;
65387;SDS011;51992;53.528;49.474;2022-12-07T00:46:38;8.95;;;5.32;;
65387;SDS011;51992;53.528;49.474;2022-12-07T00:49:04;7.97;;;4.55;;
65387;SDS011;51992;53.528;49.474;2022-12-07T00:51:29;10.38;;;5.35;;
65387;SDS011;51992;53.528;49.474;2022-12-07T00:53:55;7.47;;;4.63;;
65387;SDS011;51992;53.528;49.474;2022-12-07T00:56:22;12.38;;;5.32;;
65387;SDS011;51992;53.528;49.474;2022-12-07T00:58:55;10.60;;;5.55;;
65387;SDS011;51992;53.528;49.474;2022-12-07T01:01:21;11.15;;;6.00;;
65387;SDS011;51992;53.528;49.474;2022-12-07T01:03:47;9.40;;;5.30;;
65387;SDS011;51992;53.528;49.474;2022-12-07T01:06:16;6.18;;;4.45;;
65387;SDS011;51992;53.528;49.474;2022-12-07T01:08:42;10.27;;;5.75;;
65387;SDS011;51992;53.528;49.474;2022-12-07T01:11:09;10.02;;;5.85;;
65387;SDS011;51992;53.528;49.474;2022-12-07T01:13:35;12.63;;;5.63;;
65387;SDS011;51992;53.528;49.474;2022-12-07T01:16:02;11.55;;;5.18;;
65387;SDS011;51992;53.528;49.474;2022-12-07T01:18:28;9.07;;;5.63;;
65387;SDS011;51992;53.528;49.474;2022-12-07T01:21:08;10.43;;;4.80;;
65387;SDS011;51992;53.528;49.474;2022-12-07T01:23:34;12.18;;;5.60;;
65387;SDS011;51992;53.528;49.474;2022-12-07T01:26:01;11.98;;;5.55;;
65387;SDS011;51992;53.528;49.474;2022-12-07T01:28:27;12.60;;;5.93;;
65387;SDS011;51992;53.528;49.474;2022-12-07T01:30:57;14.50;;;6.43;;
65387;SDS011;51992;53.528;49.474;2022-12-07T01:33:23;11.10;;;5.80;;
65387;SDS011;51992;53.528;49.474;2022-12-07T01:35:48;9.57;;;5.70;;
65387;SDS011;51992;53.528;49.474;2022-12-07T01:38:14;11.85;;;5.38;;
65387;SDS011;51992;53.528;49.474;2022-12-07T01:40:40;11.85;;;5.65;;
65387;SDS011;51992;53.528;49.474;2022-12-07T01:43:18;9.23;;;5.43;;
65387;SDS011;51992;53.528;49.474;2022-12-07T01:45:44;8.07;;;5.03;;
65387;SDS011;51992;53.528;49.474;2022-12-07T01:48:10;11.55;;;5.60;;
65387;SDS011;51992;53.528;49.474;2022-12-07T01:50:36;10.75;;;5.60;;
65387;SDS011;51992;53.528;49.474;2022-12-07T01:53:03;14.25;;;5.32;;
65387;SDS011;51992;53.528;49.474;2022-12-07T01:55:30;10.00;;;4.93;;
65387;SDS011;51992;53.528;49.474;2022-12-07T01:57:56;9.20;;;4.97;;
65387;SDS011;51992;53.528;49.474;2022-12-07T02:00:22;10.05;;;5.13;;
65387;SDS011;51992;53.528;49.474;2022-12-07T02:02:52;10.63;;;5.15;;
65387;SDS011;51992;53.528;49.474;2022-12-07T02:05:19;8.93;;;5.22;;
65387;SDS011;51992;53.528;49.474;2022-12-07T02:07:45;9.85;;;5.20;;
65387;SDS011;51992;53.528;49.474;2022-12-07T02:12:38;7.45;;;4.63;;
65387;SDS011;51992;53.528;49.474;2022-12-07T02:15:04;9.43;;;4.95;;
65387;SDS011;51992;53.528;49.474;2022-12-07T02:20:17;10.75;;;6.15;;
65387;SDS011;51992;53.528;49.474;2022-12-07T02:25:24;11.73;;;5.55;;
65387;SDS011;51992;53.528;49.474;2022-12-07T02:30:40;11.43;;;5.75;;
65387;SDS011;51992;53.528;49.474;2022-12-07T02:33:13;9.80;;;5.93;;
65387;SDS011;51992;53.528;49.474;2022-12-07T02:35:44;9.43;;;5.55;;
65387;SDS011;51992;53.528;49.474;2022-12-07T02:38:17;8.13;;;4.95;;
65387;SDS011;51992;53.528;49.474;2022-12-07T02:40:44;11.48;;;5.53;;
65387;SDS011;51992;53.528;49.474;2022-12-07T02:43:17;12.50;;;5.57;;
65387;SDS011;51992;53.528;49.474;2022-12-07T02:45:45;10.63;;;5.25;;
65387;SDS011;51992;53.528;49.474;2022-12-07T02:48:12;9.00;;;5.28;;
65387;SDS011;51992;53.528;49.474;2022-12-07T02:50:44;9.60;;;5.18;;
65387;SDS011;51992;53.528;49.474;2022-12-07T02:53:29;10.45;;;5.45;;
65387;SDS011;51992;53.528;49.474;2022-12-07T02:55:55;10.10;;;4.93;;
65387;SDS011;51992;53.528;49.474;2022-12-07T02:58:31;10.00;;;5.10;;
65387;SDS011;51992;53.528;49.474;2022-12-07T03:03:45;12.80;;;5.55;;
65387;SDS011;51992;53.528;49.474;2022-12-07T03:06:16;8.90;;;5.03;;
65387;SDS011;51992;53.528;49.474;2022-12-07T03:09:01;14.05;;;4.95;;
65387;SDS011;51992;53.528;49.474;2022-12-07T03:11:40;7.75;;;4.85;;
65387;SDS011;51992;53.528;49.474;2022-12-07T03:14:11;9.15;;;5.00;;
65387;SDS011;51992;53.528;49.474;2022-12-07T03:16:59;12.27;;;4.55;;
65387;SDS011;51992;53.528;49.474;2022-12-07T03:19:26;9.20;;;4.55;;
65387;SDS011;51992;53.528;49.474;2022-12-07T03:22:02;10.07;;;5.47;;
65387;SDS011;51992;53.528;49.474;2022-12-07T03:24:31;10.38;;;5.22;;
65387;SDS011;51992;53.528;49.474;2022-12-07T03:27:09;8.90;;;5.60;;
65387;SDS011;51992;53.528;49.474;2022-12-07T03:33:04;14.25;;;5.78;;
65387;SDS011;51992;53.528;49.474;2022-12-07T03:35:12;11.95;;;5.82;;
65387;SDS011;51992;53.528;49.474;2022-12-07T03:37:44;13.63;;;6.18;;
65387;SDS011;51992;53.528;49.474;2022-12-07T03:40:26;10.73;;;6.00;;
65387;SDS011;51992;53.528;49.474;2022-12-07T03:42:53;8.68;;;5.65;;
65387;SDS011;51992;53.528;49.474;2022-12-07T03:45:21;11.50;;;5.40;;
65387;SDS011;51992;53.528;49.474;2022-12-07T03:51:37;9.27;;;5.40;;
65387;SDS011;51992;53.528;49.474;2022-12-07T03:53:39;11.02;;;5.43;;
65387;SDS011;51992;53.528;49.474;2022-12-07T03:56:06;11.18;;;5.38;;
65387;SDS011;51992;53.528;49.474;2022-12-07T03:58:33;9.85;;;5.38;;
65387;SDS011;51992;53.528;49.474;2022-12-07T04:00:59;11.38;;;4.97;;
65387;SDS011;51992;53.528;49.474;2022-12-07T04:03:25;12.25;;;5.50;;
65387;SDS011;51992;53.528;49.474;2022-12-07T04:05:51;6.90;;;4.28;;
65387;SDS011;51992;53.528;49.474;2022-12-07T04:08:16;8.90;;;4.78;;
65387;SDS011;51992;53.528;49.474;2022-12-07T04:10:42;10.07;;;4.88;;
65387;SDS011;51992;53.528;49.474;2022-12-07T04:13:08;9.77;;;5.90;;
65387;SDS011;51992;53.528;49.474;2022-12-07T04:15:34;10.88;;;4.95;;
65387;SDS011;51992;53.528;49.474;2022-12-07T04:17:59;12.88;;;5.10;;
65387;SDS011;51992;53.528;49.474;2022-12-07T04:20:25;8.73;;;4.63;;
65387;SDS011;51992;53.528;49.474;2022-12-07T04:22:51;7.60;;;4.88;;
65387;SDS011;51992;53.528;49.474;2022-12-07T04:25:17;8.30;;;5.20;;
65387;SDS011;51992;53.528;49.474;2022-12-07T04:27:42;7.15;;;4.28;;
65387;SDS011;51992;53.528;49.474;2022-12-07T04:30:08;8.55;;;4.57;;
65387;SDS011;51992;53.528;49.474;2022-12-07T04:32:34;9.10;;;4.30;;
65387;SDS011;51992;53.528;49.474;2022-12-07T04:34:59;13.68;;;4.78;;
65387;SDS011;51992;53.528;49.474;2022-12-07T04:37:25;6.35;;;4.32;;
65387;SDS011;51992;53.528;49.474;2022-12-07T04:39:51;11.98;;;5.22;;
65387;SDS011;51992;53.528;49.474;2022-12-07T04:42:16;8.13;;;4.07;;
65387;SDS011;51992;53.528;49.474;2022-12-07T04:44:42;8.63;;;4.85;;
65387;SDS011;51992;53.528;49.474;2022-12-07T04:47:08;6.75;;;4.63;;
65387;SDS011;51992;53.528;49.474;2022-12-07T04:49:33;9.55;;;4.82;;
65387;SDS011;51992;53.528;49.474;2022-12-07T04:51:59;7.50;;;4.82;;
65387;SDS011;51992;53.528;49.474;2022-12-07T04:54:25;8.18;;;4.43;;
65387;SDS011;51992;53.528;49.474;2022-12-07T04:56:51;9.13;;;4.75;;
65387;SDS011;51992;53.528;49.474;2022-12-07T04:59:16;10.02;;;5.03;;
65387;SDS011;51992;53.528;49.474;2022-12-07T05:01:42;10.32;;;4.50;;
65387;SDS011;51992;53.528;49.474;2022-12-07T05:04:08;7.60;;;4.63;;
65387;SDS011;51992;53.528;49.474;2022-12-07T05:06:34;11.88;;;5.30;;
65387;SDS011;51992;53.528;49.474;2022-12-07T05:08:59;8.50;;;4.50;;
65387;SDS011;51992;53.528;49.474;2022-12-07T05:11:25;10.93;;;5.13;;
65387;SDS011;51992;53.528;49.474;2022-12-07T05:14:04;10.57;;;4.85;;
65387;SDS011;51992;53.528;49.474;2022-12-07T05:16:30;9.48;;;4.40;;
65387;SDS011;51992;53.528;49.474;2022-12-07T05:18:56;8.52;;;4.18;;
65387;SDS011;51992;53.528;49.474;2022-12-07T05:21:21;7.88;;;4.47;;
65387;SDS011;51992;53.528;49.474;2022-12-07T05:23:47;11.82;;;4.68;;
65387;SDS011;51992;53.528;49.474;2022-12-07T05:26:13;8.13;;;4.57;;
65387;SDS011;51992;53.528;49.474;2022-12-07T05:28:38;12.82;;;5.20;;
65387;SDS011;51992;53.528;49.474;2022-12-07T05:31:04;7.85;;;4.78;;
65387;SDS011;51992;53.528;49.474;2022-12-07T06:29:41;5.82;;;2.95;;
65387;SDS011;51992;53.528;49.474;2022-12-07T06:32:07;5.18;;;3.17;;
65387;SDS011;51992;53.528;49.474;2022-12-07T06:34:42;8.75;;;3.78;;
65387;SDS011;51992;53.528;49.474;2022-12-07T06:37:08;4.47;;;2.83;;
65387;SDS011;51992;53.528;49.474;2022-12-07T06:39:33;6.05;;;3.63;;
65387;SDS011;51992;53.528;49.474;2022-12-07T06:41:59;7.38;;;3.40;;
65387;SDS011;51992;53.528;49.474;2022-12-07T06:44:28;5.53;;;2.83;;
65387;SDS011;51992;53.528;49.474;2022-12-07T06:46:53;4.63;;;2.60;;
65387;SDS011;51992;53.528;49.474;2022-12-07T06:49:19;9.45;;;3.17;;
65387;SDS011;51992;53.528;49.474;2022-12-07T06:51:45;5.03;;;3.13;;
65387;SDS011;51992;53.528;49.474;2022-12-07T06:54:11;5.78;;;3.00;;
65387;SDS011;51992;53.528;49.474;2022-12-07T06:56:37;6.63;;;3.47;;
65387;SDS011;51992;53.528;49.474;2022-12-07T06:59:03;4.80;;;3.15;;
65387;SDS011;51992;53.528;49.474;2022-12-07T07:01:30;7.72;;;2.95;;
65387;SDS011;51992;53.528;49.474;2022-12-07T07:03:56;7.10;;;2.63;;
65387;SDS011;51992;53.528;49.474;2022-12-07T07:06:22;4.13;;;2.75;;
65387;SDS011;51992;53.528;49.474;2022-12-07T07:08:48;3.90;;;2.80;;
65387;SDS011;51992;53.528;49.474;2022-12-07T07:11:13;6.20;;;3.33;;
65387;SDS011;51992;53.528;49.474;2022-12-07T07:13:39;3.85;;;2.95;;
65387;SDS011;51992;53.528;49.474;2022-12-07T07:16:05;6.22;;;3.72;;
65387;SDS011;51992;53.528;49.474;2022-12-07T07:18:31;5.55;;;2.67;;
65387;SDS011;51992;53.528;49.474;2022-12-07T07:20:57;7.35;;;3.13;;
65387;SDS011;51992;53.528;49.474;2022-12-07T07:23:22;6.85;;;3.20;;
65387;SDS011;51992;53.528;49.474;2022-12-07T07:25:48;6.28;;;3.00;;
65387;SDS011;51992;53.528;49.474;2022-12-07T07:28:14;3.90;;;2.97;;
65387;SDS011;51992;53.528;49.474;2022-12-07T07:30:44;4.93;;;3.17;;
65387;SDS011;51992;53.528;49.474;2022-12-07T07:33:10;5.63;;;3.17;;
65387;SDS011;51992;53.528;49.474;2022-12-07T07:35:36;8.02;;;3.67;;
65387;SDS011;51992;53.528;49.474;2022-12-07T07:38:02;7.05;;;3.13;;
65387;SDS011;51992;53.528;49.474;2022-12-07T07:40:28;7.90;;;3.45;;
65387;SDS011;51992;53.528;49.474;2022-12-07T07:42:54;6.40;;;2.85;;
65387;SDS011;51992;53.528;49.474;2022-12-07T07:45:21;8.63;;;4.00;;
65387;SDS011;51992;53.528;49.474;2022-12-07T07:47:47;8.38;;;3.53;;
65387;SDS011;51992;53.528;49.474;2022-12-07T07:50:13;8.23;;;4.05;;
65387;SDS011;51992;53.528;49.474;2022-12-07T07:52:39;8.90;;;4.30;;
65387;SDS011;51992;53.528;49.474;2022-12-07T07:55:05;12.60;;;3.75;;
65387;SDS011;51992;53.528;49.474;2022-12-07T07:57:31;12.15;;;4.55;;
65387;SDS011;51992;53.528;49.474;2022-12-07T07:59:56;8.10;;;4.38;;
65387;SDS011;51992;53.528;49.474;2022-12-07T08:02:22;10.68;;;5.15;;
65387;SDS011;51992;53.528;49.474;2022-12-07T08:04:48;4.75;;;3.45;;
65387;SDS011;51992;53.528;49.474;2022-12-07T08:07:14;3.60;;;3.10;;
65387;SDS011;51992;53.528;49.474;2022-12-07T08:09:40;5.13;;;3.22;;
65387;SDS011;51992;53.528;49.474;2022-12-07T08:12:06;7.57;;;4.20;;
65387;SDS011;51992;53.528;49.474;2022-12-07T08:14:31;2.83;;;2.55;;
65387;SDS011;51992;53.528;49.474;2022-12-07T08:16:57;3.67;;;2.25;;
65387;SDS011;51992;53.528;49.474;2022-12-07T08:19:23;2.08;;;1.58;;
65387;SDS011;51992;53.528;49.474;2022-12-07T08:21:49;12.60;;;2.97;;
65387;SDS011;51992;53.528;49.474;2022-12-07T08:24:15;5.57;;;3.10;;
65387;SDS011;51992;53.528;49.474;2022-12-07T08:26:41;3.90;;;3.20;;
65387;SDS011;51992;53.528;49.474;2022-12-07T08:29:06;3.42;;;1.92;;
65387;SDS011;51992;53.528;49.474;2022-12-07T08:31:32;3.30;;;2.13;;
65387;SDS011;51992;53.528;49.474;2022-12-07T08:33:58;3.45;;;2.40;;
65387;SDS011;51992;53.528;49.474;2022-12-07T08:36:24;6.03;;;2.28;;
65387;SDS011;51992;53.528;49.474;2022-12-07T08:38:50;3.08;;;1.48;;
65387;SDS011;51992;53.528;49.474;2022-12-07T08:41:16;1.77;;;1.67;;
65387;SDS011;51992;53.528;49.474;2022-12-07T08:43:41;1.60;;;1.50;;
65387;SDS011;51992;53.528;49.474;2022-12-07T08:46:41;4.25;;;2.38;;
65387;SDS011;51992;53.528;49.474;2022-12-07T08:51:28;0.93;;;0.93;;
65387;SDS011;51992;53.528;49.474;2022-12-07T08:53:54;2.13;;;1.95;;
65387;SDS011;51992;53.528;49.474;2022-12-07T08:56:21;2.72;;;1.90;;
65387;SDS011;51992;53.528;49.474;2022-12-07T08:58:47;2.63;;;1.50;;
65387;SDS011;51992;53.528;49.474;2022-12-07T09:01:13;2.22;;;1.83;;
65387;SDS011;51992;53.528;49.474;2022-12-07T09:03:39;1.95;;;1.85;;
65387;SDS011;51992;53.528;49.474;2022-12-07T09:06:05;2.80;;;1.73;;
65387;SDS011;51992;53.528;49.474;2022-12-07T09:08:33;6.13;;;2.70;;
65387;SDS011;51992;53.528;49.474;2022-12-07T09:10:59;1.73;;;1.42;;
65387;SDS011;51992;53.528;49.474;2022-12-07T09:13:28;1.00;;;1.00;;
65387;SDS011;51992;53.528;49.474;2022-12-07T09:15:53;3.13;;;1.77;;
65387;SDS011;51992;53.528;49.474;2022-12-07T09:18:19;1.75;;;1.58;;
65387;SDS011;51992;53.528;49.474;2022-12-07T09:20:45;1.48;;;1.33;;
65387;SDS011;51992;53.528;49.474;2022-12-07T09:23:10;3.13;;;2.33;;
65387;SDS011;51992;53.528;49.474;2022-12-07T09:25:36;2.97;;;2.05;;
65387;SDS011;51992;53.528;49.474;2022-12-07T09:28:02;1.77;;;1.10;;
65387;SDS011;51992;53.528;49.474;2022-12-07T09:30:28;0.93;;;0.93;;
65387;SDS011;51992;53.528;49.474;2022-12-07T09:32:54;0.90;;;0.85;;
65387;SDS011;51992;53.528;49.474;2022-12-07T09:35:20;3.60;;;2.00;;
65387;SDS011;51992;53.528;49.474;2022-12-07T09:37:46;1.08;;;0.75;;
65387;SDS011;51992;53.528;49.474;2022-12-07T09:40:12;1.55;;;1.20;;
65387;SDS011;51992;53.528;49.474;2022-12-07T09:42:39;1.98;;;1.35;;
65387;SDS011;51992;53.528;49.474;2022-12-07T09:45:14;2.60;;;1.10;;
65387;SDS011;51992;53.528;49.474;2022-12-07T09:47:40;1.77;;;1.58;;
65387;SDS011;51992;53.528;49.474;2022-12-07T09:50:16;2.28;;;1.60;;
65387;SDS011;51992;53.528;49.474;2022-12-07T09:52:43;1.33;;;1.23;;
65387;SDS011;51992;53.528;49.474;2022-12-07T09:55:11;1.40;;;1.15;;
65387;SDS011;51992;53.528;49.474;2022-12-07T09:57:37;0.85;;;0.85;;
65387;SDS011;51992;53.528;49.474;2022-12-07T10:00:06;2.13;;;1.92;;
65387;SDS011;51992;53.528;49.474;2022-12-07T10:02:37;10.95;;;1.45;;
65387;SDS011;51992;53.528;49.474;2022-12-07T10:05:07;1.00;;;1.00;;
65387;SDS011;51992;53.528;49.474;2022-12-07T10:07:33;3.75;;;1.77;;
65387;SDS011;51992;53.528;49.474;2022-12-07T10:09:59;4.97;;;2.78;;
65387;SDS011;51992;53.528;49.474;2022-12-07T10:12:24;4.05;;;1.73;;
65387;SDS011;51992;53.528;49.474;2022-12-07T10:15:00;1.48;;;1.38;;
65387;SDS011;51992;53.528;49.474;2022-12-07T10:17:40;4.13;;;1.90;;
65387;SDS011;51992;53.528;49.474;2022-12-07T10:20:12;9.13;;;2.20;;
65387;SDS011;51992;53.528;49.474;2022-12-07T10:22:38;0.93;;;0.93;;
65387;SDS011;51992;53.528;49.474;2022-12-07T10:25:18;1.67;;;1.55;;
65387;SDS011;51992;53.528;49.474;2022-12-07T10:27:44;1.77;;;1.38;;
65387;SDS011;51992;53.528;49.474;2022-12-07T10:30:22;0.65;;;0.50;;
65387;SDS011;51992;53.528;49.474;2022-12-07T10:32:47;3.78;;;2.92;;
65387;SDS011;51992;53.528;49.474;2022-12-07T10:35:27;2.28;;;1.55;;
65387;SDS011;51992;53.528;49.474;2022-12-07T10:37:53;1.23;;;1.17;;
65387;SDS011;51992;53.528;49.474;2022-12-07T10:42:59;0.70;;;0.70;;
65387;SDS011;51992;53.528;49.474;2022-12-07T10:45:26;1.10;;;1.05;;
65387;SDS011;51992;53.528;49.474;2022-12-07T10:47:54;2.40;;;1.30;;
65387;SDS011;51992;53.528;49.474;2022-12-07T11:00:47;2.17;;;1.98;;
65387;SDS011;51992;53.528;49.474;2022-12-07T11:03:33;1.77;;;1.10;;
65387;SDS011;51992;53.528;49.474;2022-12-07T11:06:06;1.90;;;1.55;;
65387;SDS011;51992;53.528;49.474;2022-12-07T11:08:41;5.35;;;2.78;;
65387;SDS011;51992;53.528;49.474;2022-12-07T11:11:53;3.13;;;1.08;;
65387;SDS011;51992;53.528;49.474;2022-12-07T11:14:04;2.40;;;1.83;;
65387;SDS011;51992;53.528;49.474;2022-12-07T11:19:13;1.75;;;1.65;;
65387;SDS011;51992;53.528;49.474;2022-12-07T11:22:00;1.67;;;1.35;;
65387;SDS011;51992;53.528;49.474;2022-12-07T11:24:32;1.83;;;1.65;;
65387;SDS011;51992;53.528;49.474;2022-12-07T11:32:20;3.10;;;1.73;;
65387;SDS011;51992;53.528;49.474;2022-12-07T11:37:27;1.35;;;1.27;;
65387;SDS011;51992;53.528;49.474;2022-12-07T11:39:56;1.10;;;0.88;;
65387;SDS011;51992;53.528;49.474;2022-12-07T11:42:26;0.93;;;0.93;;
65387;SDS011;51992;53.528;49.474;2022-12-07T11:45:35;0.77;;;0.75;;
65387;SDS011;51992;53.528;49.474;2022-12-07T11:52:53;1.00;;;1.00;;
65387;SDS011;51992;53.528;49.474;2022-12-07T11:55:29;0.73;;;0.73;;
65387;SDS011;51992;53.528;49.474;2022-12-07T12:00:49;1.33;;;1.27;;
65387;SDS011;51992;53.528;49.474;2022-12-07T12:03:16;2.30;;;1.52;;
65387;SDS011;51992;53.528;49.474;2022-12-07T12:05:45;2.10;;;1.50;;
65387;SDS011;51992;53.528;49.474;2022-12-07T12:08:16;3.05;;;1.27;;
65387;SDS011;51992;53.528;49.474;2022-12-07T12:10:54;4.53;;;1.60;;
65387;SDS011;51992;53.528;49.474;2022-12-07T12:16:08;5.57;;;1.58;;
65387;SDS011;51992;53.528;49.474;2022-12-07T12:18:53;2.55;;;2.25;;
65387;SDS011;51992;53.528;49.474;2022-12-07T12:21:27;1.15;;;1.05;;
65387;SDS011;51992;53.528;49.474;2022-12-07T12:24:13;3.28;;;2.42;;
65387;SDS011;51992;53.528;49.474;2022-12-07T12:26:47;1.02;;;1.00;;
65387;SDS011;51992;53.528;49.474;2022-12-07T12:29:19;0.88;;;0.65;;
65387;SDS011;51992;53.528;49.474;2022-12-07T12:31:47;1.02;;;0.93;;
65387;SDS011;51992;53.528;49.474;2022-12-07T12:34:32;1.48;;;1.38;;
65387;SDS011;51992;53.528;49.474;2022-12-07T12:36:58;1.02;;;1.00;;
65387;SDS011;51992;53.528;49.474;2022-12-07T12:39:23;1.35;;;1.17;;
65387;SDS011;51992;53.528;49.474;2022-12-07T12:41:51;10.95;;;1.73;;
65387;SDS011;51992;53.528;49.474;2022-12-07T12:51:51;2.03;;;1.52;;
65387;SDS011;51992;53.528;49.474;2022-12-07T12:56:46;4.13;;;2.10;;
65387;SDS011;51992;53.528;49.474;2022-12-07T13:01:47;4.25;;;2.10;;
65387;SDS011;51992;53.528;49.474;2022-12-07T13:04:56;2.10;;;1.40;;
65387;SDS011;51992;53.528;49.474;2022-12-07T13:07:02;2.58;;;1.92;;
65387;SDS011;51992;53.528;49.474;2022-12-07T13:09:29;2.58;;;2.30;;
65387;SDS011;51992;53.528;49.474;2022-12-07T13:11:58;5.65;;;2.33;;
65387;SDS011;51992;53.528;49.474;2022-12-07T13:17:12;4.03;;;2.53;;
65387;SDS011;51992;53.528;49.474;2022-12-07T13:20:06;5.47;;;2.45;;
65387;SDS011;51992;53.528;49.474;2022-12-07T13:25:11;2.50;;;2.25;;
65387;SDS011;51992;53.528;49.474;2022-12-07T13:27:43;3.88;;;2.75;;
65387;SDS011;51992;53.528;49.474;2022-12-07T13:30:16;4.55;;;2.25;;
65387;SDS011;51992;53.528;49.474;2022-12-07T13:32:42;6.65;;;2.88;;
65387;SDS011;51992;53.528;49.474;2022-12-07T13:37:53;6.35;;;3.92;;
65387;SDS011;51992;53.528;49.474;2022-12-07T13:40:19;10.55;;;4.15;;
65387;SDS011;51992;53.528;49.474;2022-12-07T13:42:46;3.58;;;2.90;;
65387;SDS011;51992;53.528;49.474;2022-12-07T13:45:22;9.88;;;4.35;;
65387;SDS011;51992;53.528;49.474;2022-12-07T13:48:09;7.90;;;3.92;;
65387;SDS011;51992;53.528;49.474;2022-12-07T13:50:36;8.00;;;4.68;;
65387;SDS011;51992;53.528;49.474;2022-12-07T13:53:07;9.13;;;4.35;;
65387;SDS011;51992;53.528;49.474;2022-12-07T13:55:36;6.70;;;4.10;;
65387;SDS011;51992;53.528;49.474;2022-12-07T13:58:09;9.40;;;4.38;;
65387;SDS011;51992;53.528;49.474;2022-12-07T14:00:35;6.68;;;4.18;;
65387;SDS011;51992;53.528;49.474;2022-12-07T14:03:02;8.30;;;3.92;;
65387;SDS011;51992;53.528;49.474;2022-12-07T14:05:30;3.05;;;2.78;;
65387;SDS011;51992;53.528;49.474;2022-12-07T14:07:57;6.97;;;3.67;;
65387;SDS011;51992;53.528;49.474;2022-12-07T14:10:30;5.30;;;2.88;;
65387;SDS011;51992;53.528;49.474;2022-12-07T14:12:56;4.97;;;3.10;;
65387;SDS011;51992;53.528;49.474;2022-12-07T14:15:32;10.38;;;2.85;;
65387;SDS011;51992;53.528;49.474;2022-12-07T14:17:59;11.63;;;4.35;;
65387;SDS011;51992;53.528;49.474;2022-12-07T14:20:32;5.32;;;3.42;;
65387;SDS011;51992;53.528;49.474;2022-12-07T14:22:58;4.53;;;3.05;;
65387;SDS011;51992;53.528;49.474;2022-12-07T14:25:25;3.30;;;1.63;;
65387;SDS011;51992;53.528;49.474;2022-12-07T14:27:59;2.65;;;2.03;;
65387;SDS011;51992;53.528;49.474;2022-12-07T14:30:26;2.88;;;2.42;;
65387;SDS011;51992;53.528;49.474;2022-12-07T14:33:11;3.33;;;1.90;;
65387;SDS011;51992;53.528;49.474;2022-12-07T14:35:37;4.28;;;2.15;;
65387;SDS011;51992;53.528;49.474;2022-12-07T14:38:02;5.32;;;1.52;;
65387;SDS011;51992;53.528;49.474;2022-12-07T14:40:28;2.85;;;1.48;;
65387;SDS011;51992;53.528;49.474;2022-12-07T14:43:02;5.78;;;2.10;;
65387;SDS011;51992;53.528;49.474;2022-12-07T14:45:28;4.40;;;1.98;;
65387;SDS011;51992;53.528;49.474;2022-12-07T14:47:54;6.50;;;1.77;;
65387;SDS011;51992;53.528;49.474;2022-12-07T14:50:20;3.05;;;2.35;;
65387;SDS011;51992;53.528;49.474;2022-12-07T14:52:47;3.92;;;1.90;;
65387;SDS011;51992;53.528;49.474;2022-12-07T14:57:48;2.38;;;2.15;;
65387;SDS011;51992;53.528;49.474;2022-12-07T15:00:15;4.03;;;2.55;;
65387;SDS011;51992;53.528;49.474;2022-12-07T15:02:40;3.80;;;3.15;;
65387;SDS011;51992;53.528;49.474;2022-12-07T15:05:06;9.07;;;3.08;;
65387;SDS011;51992;53.528;49.474;2022-12-07T15:07:32;6.03;;;2.63;;
65387;SDS011;51992;53.528;49.474;2022-12-07T15:09:58;5.00;;;2.50;;
65387;SDS011;51992;53.528;49.474;2022-12-07T15:12:23;2.40;;;2.22;;
65387;SDS011;51992;53.528;49.474;2022-12-07T15:14:50;6.78;;;2.88;;
65387;SDS011;51992;53.528;49.474;2022-12-07T15:17:16;5.00;;;2.45;;
65387;SDS011;51992;53.528;49.474;2022-12-07T15:19:41;5.53;;;2.58;;
65387;SDS011;51992;53.528;49.474;2022-12-07T15:22:08;3.08;;;2.17;;
65387;SDS011;51992;53.528;49.474;2022-12-07T15:24:36;4.68;;;2.35;;
65387;SDS011;51992;53.528;49.474;2022-12-07T15:27:01;3.58;;;2.60;;
65387;SDS011;51992;53.528;49.474;2022-12-07T15:29:27;4.03;;;3.15;;
65387;SDS011;51992;53.528;49.474;2022-12-07T15:31:53;3.60;;;2.58;;
65387;SDS011;51992;53.528;49.474;2022-12-07T15:34:19;2.78;;;2.45;;
65387;SDS011;51992;53.528;49.474;2022-12-07T15:36:44;5.28;;;2.70;;
65387;SDS011;51992;53.528;49.474;2022-12-07T15:39:10;7.28;;;3.53;;
65387;SDS011;51992;53.528;49.474;2022-12-07T15:41:36;5.45;;;2.70;;
65387;SDS011;51992;53.528;49.474;2022-12-07T15:44:02;11.07;;;4.20;;
65387;SDS011;51992;53.528;49.474;2022-12-07T15:46:47;12.93;;;3.67;;
65387;SDS011;51992;53.528;49.474;2022-12-07T15:49:13;8.85;;;3.85;;
65387;SDS011;51992;53.528;49.474;2022-12-07T15:51:40;4.57;;;3.10;;
65387;SDS011;51992;53.528;49.474;2022-12-07T15:54:05;4.35;;;2.47;;
65387;SDS011;51992;53.528;49.474;2022-12-07T15:56:31;2.78;;;2.50;;
65387;SDS011;51992;53.528;49.474;2022-12-07T15:58:57;3.13;;;2.42;;
65387;SDS011;51992;53.528;49.474;2022-12-07T16:01:22;4.95;;;2.47;;
65387;SDS011;51992;53.528;49.474;2022-12-07T16:03:48;3.72;;;2.72;;
65387;SDS011;51992;53.528;49.474;2022-12-07T16:06:17;2.65;;;1.90;;
65387;SDS011;51992;53.528;49.474;2022-12-07T16:08:43;2.63;;;1.88;;
65387;SDS011;51992;53.528;49.474;2022-12-07T16:11:09;5.05;;;2.95;;
65387;SDS011;51992;53.528;49.474;2022-12-07T16:13:35;2.78;;;2.28;;
65387;SDS011;51992;53.528;49.474;2022-12-07T16:16:02;5.07;;;2.42;;
65387;SDS011;51992;53.528;49.474;2022-12-07T16:18:31;10.50;;;2.45;;
65387;SDS011;51992;53.528;49.474;2022-12-07T16:20:57;4.88;;;2.38;;
65387;SDS011;51992;53.528;49.474;2022-12-07T16:23:23;2.40;;;1.67;;
65387;SDS011;51992;53.528;49.474;2022-12-07T16:25:48;3.00;;;1.80;;
65387;SDS011;51992;53.528;49.474;2022-12-07T16:28:14;2.65;;;1.92;;
65387;SDS011;51992;53.528;49.474;2022-12-07T16:30:40;3.83;;;2.05;;
65387;SDS011;51992;53.528;49.474;2022-12-07T16:33:05;4.78;;;2.05;;
65387;SDS011;51992;53.528;49.474;2022-12-07T16:35:31;5.68;;;2.58;;
65387;SDS011;51992;53.528;49.474;2022-12-07T16:37:57;3.03;;;2.55;;
65387;SDS011;51992;53.528;49.474;2022-12-07T16:40:22;5.25;;;2.92;;
65387;SDS011;51992;53.528;49.474;2022-12-07T16:42:48;2.85;;;1.80;;
65387;SDS011;51992;53.528;49.474;2022-12-07T16:45:14;1.25;;;1.15;;
65387;SDS011;51992;53.528;49.474;2022-12-07T16:47:40;3.10;;;1.98;;
65387;SDS011;51992;53.528;49.474;2022-12-07T16:50:06;2.30;;;2.00;;
65387;SDS011;51992;53.528;49.474;2022-12-07T16:52:33;2.30;;;2.10;;